sensor_id;sensor_type;location;lat;lon;timestamp;P1;durP1;ratioP1;P2;durP2;ratioP2
61739;SDS011;47645;45.288;12.038;2023-09-18T00:00:56;8.0;;;6.9;;
61739;SDS011;47645;45.288;12.038;2023-09-18T00:10:56;9.1;;;8.1;;
61739;SDS011;47645;45.288;12.038;2023-09-18T00:20:57;16.3;;;13.1;;
61739;SDS011;47645;45.288;12.038;2023-09-18T00:30:59;15.7;;;12.3;;
61739;SDS011;47645;45.288;12.038;2023-09-18T00:41:00;20.8;;;16.5;;
61739;SDS011;47645;45.288;12.038;2023-09-18T00:51:02;12.9;;;10.1;;
61739;SDS011;47645;45.288;12.038;2023-09-18T01:01:03;20.0;;;15.9;;
61739;SDS011;47645;45.288;12.038;2023-09-18T01:11:06;19.8;;;14.8;;
61739;SDS011;47645;45.288;12.038;2023-09-18T01:21:06;17.7;;;13.2;;
61739;SDS011;47645;45.288;12.038;2023-09-18T01:31:08;23.1;;;18.6;;
61739;SDS011;47645;45.288;12.038;2023-09-18T01:41:09;15.7;;;12.7;;
61739;SDS011;47645;45.288;12.038;2023-09-18T01:51:13;18.8;;;14.8;;
61739;SDS011;47645;45.288;12.038;2023-09-18T02:01:11;26.5;;;19.6;;
61739;SDS011;47645;45.288;12.038;2023-09-18T02:11:13;30.2;;;22.1;;
61739;SDS011;47645;45.288;12.038;2023-09-18T02:21:18;22.0;;;17.1;;
61739;SDS011;47645;45.288;12.038;2023-09-18T02:31:16;18.4;;;12.6;;
61739;SDS011;47645;45.288;12.038;2023-09-18T02:41:17;14.4;;;11.6;;
61739;SDS011;47645;45.288;12.038;2023-09-18T02:51:18;22.0;;;16.5;;
61739;SDS011;47645;45.288;12.038;2023-09-18T03:01:19;27.7;;;20.3;;
61739;SDS011;47645;45.288;12.038;2023-09-18T03:11:21;23.7;;;16.5;;
61739;SDS011;47645;45.288;12.038;2023-09-18T03:21:22;20.7;;;14.9;;
61739;SDS011;47645;45.288;12.038;2023-09-18T03:31:23;24.1;;;18.1;;
61739;SDS011;47645;45.288;12.038;2023-09-18T03:41:25;22.9;;;17.4;;
61739;SDS011;47645;45.288;12.038;2023-09-18T03:51:27;22.3;;;16.3;;
61739;SDS011;47645;45.288;12.038;2023-09-18T04:01:28;26.0;;;19.0;;
61739;SDS011;47645;45.288;12.038;2023-09-18T04:11:32;19.2;;;13.7;;
61739;SDS011;47645;45.288;12.038;2023-09-18T04:21:31;31.2;;;22.5;;
61739;SDS011;47645;45.288;12.038;2023-09-18T04:31:32;29.4;;;21.7;;
61739;SDS011;47645;45.288;12.038;2023-09-18T04:41:33;31.5;;;22.4;;
61739;SDS011;47645;45.288;12.038;2023-09-18T04:51:34;28.6;;;21.9;;
61739;SDS011;47645;45.288;12.038;2023-09-18T05:01:35;28.4;;;20.2;;
61739;SDS011;47645;45.288;12.038;2023-09-18T05:11:37;28.9;;;20.4;;
61739;SDS011;47645;45.288;12.038;2023-09-18T05:21:38;30.5;;;19.8;;
61739;SDS011;47645;45.288;12.038;2023-09-18T05:31:39;35.2;;;24.8;;
61739;SDS011;47645;45.288;12.038;2023-09-18T05:41:41;32.5;;;22.2;;
61739;SDS011;47645;45.288;12.038;2023-09-18T05:51:42;29.9;;;21.1;;
61739;SDS011;47645;45.288;12.038;2023-09-18T06:01:43;33.0;;;22.9;;
61739;SDS011;47645;45.288;12.038;2023-09-18T06:11:44;32.1;;;22.7;;
61739;SDS011;47645;45.288;12.038;2023-09-18T06:21:45;36.1;;;24.3;;
61739;SDS011;47645;45.288;12.038;2023-09-18T06:31:47;32.4;;;22.9;;
61739;SDS011;47645;45.288;12.038;2023-09-18T06:41:48;30.3;;;21.3;;
61739;SDS011;47645;45.288;12.038;2023-09-18T06:51:49;29.3;;;21.1;;
61739;SDS011;47645;45.288;12.038;2023-09-18T07:01:50;30.1;;;21.4;;
61739;SDS011;47645;45.288;12.038;2023-09-18T07:11:52;27.0;;;20.1;;
61739;SDS011;47645;45.288;12.038;2023-09-18T07:21:53;27.5;;;21.4;;
61739;SDS011;47645;45.288;12.038;2023-09-18T07:31:54;24.0;;;19.2;;
61739;SDS011;47645;45.288;12.038;2023-09-18T07:41:56;27.2;;;20.3;;
61739;SDS011;47645;45.288;12.038;2023-09-18T07:51:57;26.0;;;20.1;;
61739;SDS011;47645;45.288;12.038;2023-09-18T08:01:58;27.9;;;19.3;;
61739;SDS011;47645;45.288;12.038;2023-09-18T08:12:00;27.6;;;18.1;;
61739;SDS011;47645;45.288;12.038;2023-09-18T08:22:01;23.1;;;17.4;;
61739;SDS011;47645;45.288;12.038;2023-09-18T08:32:03;23.1;;;17.5;;
61739;SDS011;47645;45.288;12.038;2023-09-18T08:42:04;21.0;;;15.4;;
61739;SDS011;47645;45.288;12.038;2023-09-18T08:52:05;23.0;;;17.3;;
61739;SDS011;47645;45.288;12.038;2023-09-18T09:02:07;20.2;;;17.0;;
61739;SDS011;47645;45.288;12.038;2023-09-18T09:12:08;19.4;;;14.9;;
61739;SDS011;47645;45.288;12.038;2023-09-18T09:22:10;13.8;;;9.5;;
61739;SDS011;47645;45.288;12.038;2023-09-18T09:32:12;12.5;;;9.1;;
61739;SDS011;47645;45.288;12.038;2023-09-18T09:42:13;15.8;;;9.8;;
61739;SDS011;47645;45.288;12.038;2023-09-18T09:52:17;11.9;;;7.2;;
61739;SDS011;47645;45.288;12.038;2023-09-18T10:02:19;8.5;;;7.0;;
61739;SDS011;47645;45.288;12.038;2023-09-18T10:12:20;9.5;;;6.1;;
61739;SDS011;47645;45.288;12.038;2023-09-18T10:22:21;8.9;;;5.4;;
61739;SDS011;47645;45.288;12.038;2023-09-18T10:32:20;8.0;;;5.0;;
61739;SDS011;47645;45.288;12.038;2023-09-18T10:42:22;8.9;;;4.6;;
61739;SDS011;47645;45.288;12.038;2023-09-18T10:52:24;8.1;;;5.0;;
61739;SDS011;47645;45.288;12.038;2023-09-18T11:02:26;6.9;;;4.7;;
61739;SDS011;47645;45.288;12.038;2023-09-18T11:12:42;7.5;;;4.7;;
61739;SDS011;47645;45.288;12.038;2023-09-18T11:22:29;10.1;;;6.1;;
61739;SDS011;47645;45.288;12.038;2023-09-18T11:32:37;6.8;;;5.1;;
61739;SDS011;47645;45.288;12.038;2023-09-18T11:42:32;8.2;;;5.3;;
61739;SDS011;47645;45.288;12.038;2023-09-18T11:52:33;9.6;;;5.3;;
61739;SDS011;47645;45.288;12.038;2023-09-18T12:02:35;8.7;;;5.7;;
61739;SDS011;47645;45.288;12.038;2023-09-18T12:12:37;7.6;;;4.9;;
61739;SDS011;47645;45.288;12.038;2023-09-18T12:22:38;9.8;;;6.3;;
61739;SDS011;47645;45.288;12.038;2023-09-18T12:32:40;9.8;;;5.4;;
61739;SDS011;47645;45.288;12.038;2023-09-18T12:42:41;9.9;;;6.0;;
61739;SDS011;47645;45.288;12.038;2023-09-18T12:52:43;7.1;;;5.4;;
61739;SDS011;47645;45.288;12.038;2023-09-18T13:02:45;8.1;;;5.6;;
61739;SDS011;47645;45.288;12.038;2023-09-18T13:12:46;10.1;;;5.6;;
61739;SDS011;47645;45.288;12.038;2023-09-18T13:22:48;10.4;;;5.4;;
61739;SDS011;47645;45.288;12.038;2023-09-18T13:32:49;8.0;;;5.2;;
61739;SDS011;47645;45.288;12.038;2023-09-18T13:42:50;7.2;;;4.7;;
61739;SDS011;47645;45.288;12.038;2023-09-18T13:52:52;7.9;;;4.5;;
61739;SDS011;47645;45.288;12.038;2023-09-18T14:02:54;8.3;;;5.2;;
61739;SDS011;47645;45.288;12.038;2023-09-18T14:12:55;7.6;;;4.8;;
61739;SDS011;47645;45.288;12.038;2023-09-18T14:22:56;8.9;;;5.0;;
61739;SDS011;47645;45.288;12.038;2023-09-18T14:33:01;9.7;;;5.2;;
61739;SDS011;47645;45.288;12.038;2023-09-18T14:43:01;9.5;;;5.2;;
61739;SDS011;47645;45.288;12.038;2023-09-18T14:53:11;8.1;;;5.0;;
61739;SDS011;47645;45.288;12.038;2023-09-18T15:03:04;7.0;;;5.0;;
61739;SDS011;47645;45.288;12.038;2023-09-18T15:13:05;7.4;;;4.5;;
61739;SDS011;47645;45.288;12.038;2023-09-18T15:23:08;9.1;;;4.3;;
61739;SDS011;47645;45.288;12.038;2023-09-18T15:33:08;6.2;;;3.9;;
61739;SDS011;47645;45.288;12.038;2023-09-18T15:43:10;6.9;;;3.9;;
61739;SDS011;47645;45.288;12.038;2023-09-18T15:53:11;5.8;;;4.1;;
61739;SDS011;47645;45.288;12.038;2023-09-18T16:03:12;8.5;;;4.0;;
61739;SDS011;47645;45.288;12.038;2023-09-18T16:13:15;7.6;;;4.5;;
61739;SDS011;47645;45.288;12.038;2023-09-18T16:23:16;7.7;;;4.8;;
61739;SDS011;47645;45.288;12.038;2023-09-18T16:33:17;9.1;;;5.2;;
61739;SDS011;47645;45.288;12.038;2023-09-18T16:43:21;8.9;;;5.4;;
61739;SDS011;47645;45.288;12.038;2023-09-18T16:53:22;8.9;;;5.1;;
61739;SDS011;47645;45.288;12.038;2023-09-18T17:03:22;7.1;;;4.6;;
61739;SDS011;47645;45.288;12.038;2023-09-18T17:13:24;8.2;;;4.5;;
61739;SDS011;47645;45.288;12.038;2023-09-18T17:23:25;10.9;;;6.3;;
61739;SDS011;47645;45.288;12.038;2023-09-18T17:33:27;8.4;;;4.2;;
61739;SDS011;47645;45.288;12.038;2023-09-18T17:43:28;7.9;;;5.1;;
61739;SDS011;47645;45.288;12.038;2023-09-18T17:53:30;10.9;;;5.8;;
61739;SDS011;47645;45.288;12.038;2023-09-18T18:03:31;12.5;;;5.9;;
61739;SDS011;47645;45.288;12.038;2023-09-18T18:13:33;9.6;;;6.1;;
61739;SDS011;47645;45.288;12.038;2023-09-18T18:23:34;7.5;;;5.5;;
61739;SDS011;47645;45.288;12.038;2023-09-18T18:33:36;8.4;;;5.5;;
61739;SDS011;47645;45.288;12.038;2023-09-18T18:43:37;9.5;;;5.9;;
61739;SDS011;47645;45.288;12.038;2023-09-18T18:53:39;9.6;;;7.0;;
61739;SDS011;47645;45.288;12.038;2023-09-18T19:03:42;9.6;;;6.7;;
61739;SDS011;47645;45.288;12.038;2023-09-18T19:13:43;13.9;;;9.4;;
61739;SDS011;47645;45.288;12.038;2023-09-18T19:23:44;11.2;;;7.0;;
61739;SDS011;47645;45.288;12.038;2023-09-18T19:33:48;22.2;;;12.8;;
61739;SDS011;47645;45.288;12.038;2023-09-18T19:43:47;19.8;;;11.6;;
61739;SDS011;47645;45.288;12.038;2023-09-18T19:53:48;20.4;;;12.5;;
61739;SDS011;47645;45.288;12.038;2023-09-18T20:03:49;13.9;;;9.6;;
61739;SDS011;47645;45.288;12.038;2023-09-18T20:13:50;17.7;;;12.7;;
61739;SDS011;47645;45.288;12.038;2023-09-18T20:23:53;16.5;;;10.9;;
61739;SDS011;47645;45.288;12.038;2023-09-18T20:33:54;18.3;;;12.8;;
61739;SDS011;47645;45.288;12.038;2023-09-18T20:43:55;11.2;;;9.1;;
61739;SDS011;47645;45.288;12.038;2023-09-18T20:53:57;13.0;;;8.7;;
61739;SDS011;47645;45.288;12.038;2023-09-18T21:03:58;16.1;;;10.4;;
61739;SDS011;47645;45.288;12.038;2023-09-18T21:13:59;19.4;;;12.3;;
61739;SDS011;47645;45.288;12.038;2023-09-18T21:24:00;16.5;;;10.3;;
61739;SDS011;47645;45.288;12.038;2023-09-18T21:34:01;15.1;;;9.4;;
61739;SDS011;47645;45.288;12.038;2023-09-18T21:44:04;18.0;;;10.7;;
61739;SDS011;47645;45.288;12.038;2023-09-18T21:54:05;18.4;;;11.0;;
61739;SDS011;47645;45.288;12.038;2023-09-18T22:04:06;15.3;;;10.6;;
61739;SDS011;47645;45.288;12.038;2023-09-18T22:14:11;17.3;;;11.4;;
61739;SDS011;47645;45.288;12.038;2023-09-18T22:24:09;15.0;;;10.1;;
61739;SDS011;47645;45.288;12.038;2023-09-18T22:34:09;17.0;;;12.0;;
61739;SDS011;47645;45.288;12.038;2023-09-18T23:04:14;18.5;;;11.7;;
61739;SDS011;47645;45.288;12.038;2023-09-18T23:14:15;14.7;;;9.8;;
61739;SDS011;47645;45.288;12.038;2023-09-18T23:24:16;18.2;;;11.4;;
61739;SDS011;47645;45.288;12.038;2023-09-18T23:34:17;22.2;;;12.2;;
61739;SDS011;47645;45.288;12.038;2023-09-18T23:44:19;18.1;;;10.3;;
61739;SDS011;47645;45.288;12.038;2023-09-18T23:54:23;21.3;;;12.3;;
